Time;durP1;ratioP1;P1;durP2;ratioP2;P2;SDS_P1;SDS_P2;PMS_P1;PMS_P2;Temp;Humidity;BMP_temperature;BMP_pressure;BME280_temperature;BME280_humidity;BME280_pressure;Samples;Min_cycle;Max_cycle;Signal;HPM_P1;HPM_P2
2023/03/29 00:01:09;;;;;;;4.07;2.15;;;13.20;64.70;;;;;;4968243;28;20105;-78
2023/03/29 00:03:38;;;;;;;6.63;3.20;;;13.20;64.80;;;;;;4962819;28;20482;-79
2023/03/29 00:06:04;;;;;;;7.30;2.55;;;13.10;64.70;;;;;;4978416;28;20339;-79
2023/03/29 00:08:32;;;;;;;5.65;2.10;;;13.10;64.80;;;;;;4962842;28;20031;-79
2023/03/29 00:11:00;;;;;;;4.95;2.25;;;13.10;65.40;;;;;;4966145;28;20062;-79
2023/03/29 00:13:26;;;;;;;6.25;2.50;;;13.10;65.00;;;;;;4976748;28;20034;-79
2023/03/29 00:15:53;;;;;;;5.85;2.15;;;13.10;65.00;;;;;;4962599;28;20042;-79
2023/03/29 00:18:20;;;;;;;4.35;2.55;;;13.10;65.10;;;;;;4964030;28;20042;-78
2023/03/29 00:20:45;;;;;;;4.35;2.85;;;13.10;65.10;;;;;;4963490;28;20039;-79
2023/03/29 00:23:11;;;;;;;5.65;2.50;;;13.10;65.10;;;;;;4963314;28;20442;-79
2023/03/29 00:25:42;;;;;;;7.80;2.92;;;13.10;65.20;;;;;;4964378;28;20089;-79
2023/03/29 00:28:09;;;;;;;4.93;2.50;;;13.10;65.20;;;;;;4962904;28;20034;-79
2023/03/29 00:30:35;;;;;;;6.43;2.30;;;13.10;65.20;;;;;;4979199;28;20035;-79
2023/03/29 00:33:01;;;;;;;5.95;2.22;;;13.10;65.20;;;;;;4953512;28;20542;-79
2023/03/29 00:35:27;;;;;;;6.25;2.45;;;13.10;65.20;;;;;;4964749;28;20489;-78
2023/03/29 00:37:53;;;;;;;5.93;2.47;;;13.10;65.30;;;;;;4963543;28;20031;-79
2023/03/29 00:40:19;;;;;;;6.18;2.55;;;13.10;65.20;;;;;;4965230;28;20185;-78
2023/03/29 00:42:45;;;;;;;9.07;3.72;;;13.10;65.30;;;;;;4962969;28;20069;-77
2023/03/29 00:45:11;;;;;;;7.38;2.35;;;13.10;65.30;;;;;;4963096;28;20035;-79
2023/03/29 00:47:52;;;;;;;8.38;2.88;;;13.10;65.30;;;;;;4968864;28;20160;-79
2023/03/29 00:50:40;;;;;;;4.95;2.58;;;13.10;65.30;;;;;;4954101;28;20395;-80
2023/03/29 00:53:08;;;;;;;7.53;2.30;;;13.10;65.40;;;;;;4953383;28;20126;-80
2023/03/29 00:55:41;;;;;;;4.97;2.00;;;13.10;65.30;;;;;;4979196;28;20509;-81
2023/03/29 00:58:11;;;;;;;6.47;2.33;;;13.10;65.30;;;;;;4959402;28;20150;-80
2023/03/29 01:01:02;;;;;;;4.70;2.20;;;13.10;65.30;;;;;;4970887;28;20054;-80
2023/03/29 01:03:34;;;;;;;5.03;2.00;;;13.20;65.60;;;;;;4957308;28;20768;-80
2023/03/29 01:06:06;;;;;;;5.72;2.28;;;13.10;65.40;;;;;;4971263;28;20191;-79
2023/03/29 01:08:48;;;;;;;7.73;2.40;;;13.20;65.60;;;;;;4971913;28;20352;-78
2023/03/29 01:11:21;;;;;;;6.13;2.17;;;13.20;65.60;;;;;;4965298;28;20132;-79
2023/03/29 01:13:50;;;;;;;;;;;13.20;65.60;;;;;;4963388;28;20262;-80
2023/03/29 01:16:18;;;;;;;9.40;2.08;;;13.20;65.50;;;;;;4968639;28;19910;-79
2023/03/29 01:18:48;;;;;;;7.32;2.53;;;13.20;65.40;;;;;;4971844;28;20250;-78
2023/03/29 01:21:26;;;;;;;4.90;2.33;;;13.20;66.00;;;;;;4955852;28;20023;-79
2023/03/29 01:24:14;;;;;;;4.43;2.13;;;13.20;65.60;;;;;;4978449;28;20038;-78
2023/03/29 01:26:58;;;;;;;7.88;2.25;;;13.20;65.60;;;;;;4952889;28;20043;-79
2023/03/29 01:29:44;;;;;;;8.38;2.20;;;13.10;65.50;;;;;;4963332;28;20606;-77
2023/03/29 01:32:29;;;;;;;6.95;2.35;;;13.20;65.70;;;;;;4983293;28;20049;-77
2023/03/29 01:35:00;;;;;;;9.55;3.15;;;13.10;65.60;;;;;;4963945;28;20131;-80
2023/03/29 01:37:35;;;;;;;5.40;2.13;;;13.10;65.50;;;;;;4962798;28;20430;-79
2023/03/29 01:40:03;;;;;;;7.70;2.47;;;13.10;65.60;;;;;;4979178;28;20147;-80
2023/03/29 01:42:45;;;;;;;8.63;2.67;;;13.10;65.60;;;;;;4974198;28;20042;-79
2023/03/29 01:45:30;;;;;;;5.60;2.55;;;13.10;65.70;;;;;;4957556;28;20027;-79
2023/03/29 01:48:15;;;;;;;5.60;2.13;;;13.10;65.80;;;;;;4987206;28;20525;-77
2023/03/29 01:50:51;;;;;;;6.30;2.10;;;13.10;65.90;;;;;;4964915;28;20427;-78
2023/03/29 01:53:34;;;;;;;5.32;2.40;;;13.10;65.80;;;;;;4965312;28;20359;-79
2023/03/29 01:56:13;;;;;;;5.97;2.50;;;13.10;65.90;;;;;;4991988;28;20194;-79
2023/03/29 01:58:44;;;;;;;3.85;2.35;;;13.10;65.90;;;;;;4971696;28;20042;-79
2023/03/29 02:01:16;;;;;;;6.50;2.47;;;13.10;65.90;;;;;;4987796;28;20027;-79
2023/03/29 02:03:48;;;;;;;4.45;2.30;;;13.10;65.90;;;;;;4981834;28;20042;-79
2023/03/29 02:06:20;;;;;;;6.82;2.13;;;13.10;66.00;;;;;;4960713;28;20355;-79
2023/03/29 02:08:47;;;;;;;8.13;2.38;;;13.00;66.30;;;;;;4987240;28;20031;-81
2023/03/29 02:11:13;;;;;;;5.65;2.15;;;13.00;65.80;;;;;;4998340;28;20447;-79
2023/03/29 02:13:40;;;;;;;3.63;2.30;;;13.00;65.80;;;;;;4985139;28;20027;-78
2023/03/29 02:16:12;;;;;;;4.97;2.97;;;13.00;65.80;;;;;;4984005;28;20173;-79
2023/03/29 02:18:40;;;;;;;6.22;2.10;;;13.00;65.90;;;;;;4970799;28;20502;-79
2023/03/29 02:21:17;;;;;;;5.78;2.13;;;13.00;65.90;;;;;;4961577;28;20093;-79
2023/03/29 02:23:45;;;;;;;4.28;2.28;;;13.00;65.90;;;;;;4986763;28;20031;-79
2023/03/29 02:26:13;;;;;;;5.00;2.13;;;13.00;66.00;;;;;;4966163;28;20031;-80
2023/03/29 02:28:40;;;;;;;4.57;2.25;;;13.00;66.00;;;;;;4969026;28;20034;-80
2023/03/29 02:31:36;;;;;;;7.20;2.80;;;13.00;66.00;;;;;;4986098;28;20042;-80
2023/03/29 02:34:07;;;;;;;4.55;1.77;;;13.00;66.10;;;;;;4987284;28;20521;-79
2023/03/29 02:36:49;;;;;;;4.45;2.10;;;13.00;66.00;;;;;;4988794;28;20054;-80
2023/03/29 02:39:20;;;;;;;5.85;1.92;;;13.00;66.10;;;;;;4988702;28;20394;-81
2023/03/29 02:41:49;;;;;;;4.70;1.60;;;13.00;66.10;;;;;;4987152;28;20030;-81
2023/03/29 02:44:27;;;;;;;5.82;1.65;;;13.00;66.10;;;;;;4979725;28;20093;-80
2023/03/29 02:47:02;;;;;;;3.90;1.80;;;13.00;66.20;;;;;;4970661;28;20079;-80
2023/03/29 02:49:28;;;;;;;6.15;2.90;;;13.00;66.20;;;;;;4967171;28;20471;-80
2023/03/29 02:51:58;;;;;;;3.22;1.45;;;13.00;66.20;;;;;;4966618;28;20120;-78
2023/03/29 02:54:28;;;;;;;7.07;1.77;;;13.00;66.20;;;;;;4965275;28;20039;-78
2023/03/29 02:57:02;;;;;;;3.08;1.77;;;13.00;66.20;;;;;;4950974;29;20043;-79
2023/03/29 02:59:29;;;;;;;4.80;1.45;;;13.00;66.20;;;;;;4969605;28;20065;-79
2023/03/29 03:01:55;;;;;;;3.30;1.80;;;13.00;66.20;;;;;;4950415;29;20464;-79
2023/03/29 03:04:22;;;;;;;6.80;2.70;;;13.00;66.20;;;;;;4962059;28;20031;-80
2023/03/29 03:06:48;;;;;;;2.60;1.50;;;13.00;66.20;;;;;;4964548;28;20027;-79
2023/03/29 03:09:14;;;;;;;3.67;1.70;;;13.00;66.30;;;;;;4964459;28;20044;-79
2023/03/29 03:11:43;;;;;;;3.33;1.83;;;13.00;66.30;;;;;;4965269;28;20302;-81
2023/03/29 03:14:09;;;;;;;1.95;1.35;;;13.00;66.40;;;;;;4938358;29;20062;-79
2023/03/29 03:16:36;;;;;;;3.83;1.60;;;13.00;66.40;;;;;;4976708;28;20105;-81
2023/03/29 03:19:02;;;;;;;6.82;1.80;;;13.00;66.40;;;;;;4949470;28;20098;-82
2023/03/29 03:21:28;;;;;;;6.07;1.70;;;13.00;66.40;;;;;;4961890;28;20035;-79
2023/03/29 03:23:54;;;;;;;2.50;1.48;;;12.90;66.30;;;;;;4947219;28;20027;-78
2023/03/29 03:26:23;;;;;;;4.50;2.42;;;13.00;66.40;;;;;;4959552;28;20587;-78
2023/03/29 03:28:50;;;;;;;3.60;1.67;;;13.00;66.50;;;;;;4941175;28;20110;-78
2023/03/29 03:31:36;;;;;;;2.53;1.52;;;13.00;66.50;;;;;;4959719;28;20039;-79
2023/03/29 03:34:25;;;;;;;2.58;1.58;;;13.00;66.40;;;;;;4941405;28;20123;-79
2023/03/29 03:36:55;;;;;;;3.08;2.08;;;12.90;66.20;;;;;;4964486;28;20042;-79
2023/03/29 03:39:22;;;;;;;3.63;1.65;;;13.00;66.50;;;;;;4964594;28;20043;-80
2023/03/29 03:41:48;;;;;;;3.92;1.77;;;12.90;66.30;;;;;;4964800;28;20039;-81
2023/03/29 03:44:16;;;;;;;5.72;2.92;;;12.90;66.30;;;;;;4959961;28;20046;-81
2023/03/29 03:46:43;;;;;;;4.03;1.85;;;12.90;66.40;;;;;;4960319;28;20078;-82
2023/03/29 03:49:10;;;;;;;3.78;1.90;;;13.00;66.60;;;;;;4932022;28;20039;-81
2023/03/29 03:51:40;;;;;;;3.78;2.08;;;12.90;66.40;;;;;;4927942;28;20032;-81
2023/03/29 03:54:07;;;;;;;4.07;2.05;;;13.00;66.60;;;;;;4946470;29;20087;-80
2023/03/29 03:56:33;;;;;;;4.15;1.98;;;12.90;66.50;;;;;;4930192;29;20058;-79
2023/03/29 03:59:06;;;;;;;3.38;1.75;;;12.90;66.50;;;;;;4930604;29;20032;-80
2023/03/29 04:01:45;;;;;;;3.53;1.67;;;12.90;66.50;;;;;;4945516;28;20042;-78
2023/03/29 04:04:18;;;;;;;5.25;1.88;;;12.90;67.00;;;;;;4919547;29;20046;-79
2023/03/29 04:07:03;;;;;;;3.15;1.95;;;12.90;66.50;;;;;;4924885;29;20065;-79
2023/03/29 04:09:39;;;;;;;4.97;1.80;;;13.00;66.70;;;;;;4946172;28;20471;-79
2023/03/29 04:12:26;;;;;;;3.75;2.85;;;12.90;66.50;;;;;;4961579;28;20052;-79
2023/03/29 04:14:54;;;;;;;3.38;1.92;;;12.90;66.50;;;;;;4928868;29;20138;-79
2023/03/29 04:17:21;;;;;;;2.92;1.60;;;12.90;66.50;;;;;;4961778;28;20126;-79
2023/03/29 04:20:11;;;;;;;2.60;1.80;;;12.90;66.50;;;;;;4930622;29;20024;-78
2023/03/29 04:22:41;;;;;;;6.15;2.47;;;12.90;66.50;;;;;;4955812;28;20058;-79
2023/03/29 04:25:09;;;;;;;2.70;1.55;;;12.90;66.60;;;;;;4946287;29;20462;-79
2023/03/29 04:27:45;;;;;;;2.25;1.48;;;12.90;66.60;;;;;;4958641;28;20047;-80
2023/03/29 04:30:22;;;;;;;2.10;1.42;;;12.80;66.50;;;;;;4961544;28;20118;-80
2023/03/29 04:33:17;;;;;;;2.05;1.40;;;12.80;66.50;;;;;;4933980;28;20048;-80
2023/03/29 04:35:48;;;;;;;2.95;2.22;;;12.80;66.50;;;;;;4935198;28;20397;-80
2023/03/29 04:38:16;;;;;;;3.60;1.70;;;12.80;66.60;;;;;;4959102;28;20627;-79
2023/03/29 04:40:43;;;;;;;3.28;1.55;;;12.80;66.60;;;;;;4944372;29;20423;-80
2023/03/29 04:43:45;;;;;;;2.33;1.40;;;12.70;66.50;;;;;;4939368;28;20044;-79
2023/03/29 04:46:21;;;;;;;4.53;2.63;;;12.70;66.50;;;;;;4964801;28;20411;-79
2023/03/29 04:49:25;;;;;;;3.28;1.77;;;12.80;66.70;;;;;;4946188;28;20032;-80
2023/03/29 04:51:53;;;;;;;2.95;1.70;;;12.70;66.50;;;;;;4968506;28;20051;-80
2023/03/29 04:54:22;;;;;;;3.28;1.30;;;12.70;66.60;;;;;;4976570;28;20031;-80
2023/03/29 04:57:23;;;;;;;3.72;1.40;;;12.70;66.60;;;;;;4944809;28;20066;-82
2023/03/29 05:00:14;;;;;;;3.40;1.30;;;12.70;66.60;;;;;;4964421;28;20039;-80
2023/03/29 05:03:03;;;;;;;2.58;1.17;;;12.70;66.60;;;;;;4959848;28;20035;-81
2023/03/29 05:05:32;;;;;;;3.53;1.52;;;12.70;66.60;;;;;;4982440;28;20061;-82
2023/03/29 05:08:00;;;;;;;1.98;1.20;;;12.70;66.70;;;;;;4964136;28;20514;-81
2023/03/29 05:10:36;;;;;;;2.08;1.10;;;12.70;66.70;;;;;;4961310;28;20035;-79
2023/03/29 05:13:02;;;;;;;3.10;1.23;;;12.70;66.70;;;;;;4958887;28;20043;-79
2023/03/29 05:15:30;;;;;;;2.03;1.15;;;12.70;67.30;;;;;;4962834;28;20035;-80
2023/03/29 05:17:57;;;;;;;3.42;1.63;;;12.70;66.70;;;;;;4958900;28;20043;-80
2023/03/29 05:20:24;;;;;;;1.63;1.10;;;12.70;66.70;;;;;;4958901;28;20062;-79
2023/03/29 05:22:51;;;;;;;5.82;1.38;;;12.70;66.70;;;;;;4959447;28;20042;-80
2023/03/29 05:25:37;;;;;;;1.45;1.10;;;12.70;66.70;;;;;;4942465;28;20027;-79
2023/03/29 05:28:03;;;;;;;2.38;1.00;;;12.70;66.70;;;;;;4958710;28;20023;-80
2023/03/29 05:30:30;;;;;;;1.75;1.00;;;12.70;66.80;;;;;;4973349;28;20368;-80
2023/03/29 05:33:04;;;;;;;1.80;1.42;;;12.60;66.60;;;;;;4958998;28;20447;-80
2023/03/29 05:35:32;;;;;;;1.70;0.98;;;12.60;66.70;;;;;;4925958;28;20408;-79
2023/03/29 05:38:01;;;;;;;1.42;0.95;;;12.60;66.70;;;;;;4952516;28;20046;-80
2023/03/29 05:40:28;;;;;;;3.40;1.13;;;12.60;66.80;;;;;;4958501;28;20031;-83
2023/03/29 05:43:13;;;;;;;3.90;1.20;;;12.60;66.80;;;;;;4941794;28;20502;-82
2023/03/29 05:45:40;;;;;;;2.30;1.02;;;12.60;66.80;;;;;;4958092;28;20036;-82
2023/03/29 05:48:07;;;;;;;2.85;1.50;;;12.50;66.60;;;;;;4975265;28;20030;-83
2023/03/29 05:50:36;;;;;;;2.30;1.15;;;12.60;66.80;;;;;;4960435;28;20108;-80
2023/03/29 05:53:04;;;;;;;3.38;1.27;;;12.60;66.80;;;;;;4958092;28;20042;-80
2023/03/29 05:55:31;;;;;;;1.80;1.13;;;12.60;66.90;;;;;;4964404;28;20035;-80
2023/03/29 05:57:58;;;;;;;1.90;0.98;;;12.60;66.90;;;;;;4965121;28;20054;-78
2023/03/29 06:00:30;;;;;;;3.58;1.88;;;12.60;66.90;;;;;;4969584;28;20482;-81
2023/03/29 06:03:17;;;;;;;2.30;0.82;;;12.60;66.90;;;;;;4978156;28;20548;-81
2023/03/29 06:05:49;;;;;;;3.10;1.27;;;12.60;66.90;;;;;;4968326;28;20038;-80
2023/03/29 06:08:15;;;;;;;3.33;1.20;;;12.60;66.90;;;;;;4967321;28;20049;-80
2023/03/29 06:11:16;;;;;;;1.85;1.10;;;12.60;66.90;;;;;;4957922;28;20046;-80
2023/03/29 06:14:19;;;;;;;3.60;1.05;;;12.60;66.80;;;;;;4959121;28;20318;-81
2023/03/29 06:16:53;;;;;;;2.10;1.00;;;12.60;66.80;;;;;;4965047;28;20104;-77
2023/03/29 06:19:20;;;;;;;2.13;1.50;;;12.60;66.80;;;;;;4979628;28;20391;-81
2023/03/29 06:21:47;;;;;;;2.30;1.83;;;12.60;67.00;;;;;;4963959;28;20393;-80
2023/03/29 06:24:19;;;;;;;2.95;1.25;;;12.70;67.70;;;;;;4965691;28;20451;-82
2023/03/29 06:26:51;;;;;;;4.15;1.55;;;12.80;68.20;;;;;;4982014;28;20114;-81
2023/03/29 06:29:18;;;;;;;4.13;2.08;;;12.90;68.70;;;;;;4962551;28;20128;-80
2023/03/29 06:31:45;;;;;;;2.60;1.35;;;12.90;68.90;;;;;;4963097;28;20054;-80
2023/03/29 06:34:28;;;;;;;2.20;0.82;;;13.00;69.20;;;;;;4962701;28;20057;-80
2023/03/29 06:37:03;;;;;;;3.47;1.13;;;13.00;69.30;;;;;;4960844;28;20227;-82
2023/03/29 06:39:30;;;;;;;4.88;1.67;;;13.10;69.60;;;;;;4965478;28;20060;-82
2023/03/29 06:42:17;;;;;;;3.00;1.42;;;13.10;69.70;;;;;;4964344;28;20373;-82
2023/03/29 06:44:59;;;;;;;1.88;0.95;;;13.20;69.90;;;;;;4967121;28;20094;-82
2023/03/29 06:47:30;;;;;;;1.90;1.30;;;13.20;70.00;;;;;;4958627;28;20477;-81
2023/03/29 06:49:58;;;;;;;2.55;1.98;;;13.30;70.30;;;;;;4959400;28;20131;-82
2023/03/29 06:52:39;;;;;;;2.45;1.10;;;13.30;70.30;;;;;;4950366;28;20326;-78
2023/03/29 06:55:07;;;;;;;3.28;1.73;;;13.40;70.50;;;;;;4945558;28;20058;-79
2023/03/29 06:57:36;;;;;;;0.80;0.70;;;13.50;70.90;;;;;;4940195;28;20334;-79
2023/03/29 07:00:17;;;;;;;2.17;1.10;;;13.60;71.50;;;;;;4936525;28;20042;-77
2023/03/29 07:03:09;;;;;;;3.20;1.08;;;13.80;72.10;;;;;;4926377;29;20807;-77
2023/03/29 07:05:39;;;;;;;1.55;0.80;;;14.10;72.50;;;;;;4940409;28;20035;-77
2023/03/29 07:10:51;;;;;;;1.50;0.90;;;14.60;72.70;;;;;;4939888;28;20118;-78
2023/03/29 07:13:41;;;;;;;1.02;0.88;;;14.90;72.90;;;;;;4923557;29;20043;-75
2023/03/29 07:16:12;;;;;;;2.25;0.80;;;15.10;72.80;;;;;;4936805;29;20027;-76
2023/03/29 07:18:42;;;;;;;1.02;0.68;;;15.30;72.80;;;;;;4945860;29;20059;-76
2023/03/29 07:21:12;;;;;;;2.10;0.77;;;15.50;72.80;;;;;;4977760;28;20047;-75
2023/03/29 07:23:41;;;;;;;0.85;0.43;;;15.70;72.90;;;;;;4946887;29;20628;-79
2023/03/29 07:26:09;;;;;;;1.20;0.60;;;15.80;72.90;;;;;;4946592;29;20036;-79
2023/03/29 07:28:36;;;;;;;0.32;0.32;;;15.90;72.80;;;;;;4961770;28;20040;-77
2023/03/29 07:31:06;;;;;;;0.70;0.43;;;16.10;73.00;;;;;;4952109;29;20063;-79
2023/03/29 07:33:36;;;;;;;0.60;0.50;;;16.20;72.80;;;;;;4941165;28;20040;-79
2023/03/29 07:36:05;;;;;;;1.27;0.45;;;16.30;72.70;;;;;;4927005;29;20034;-79
2023/03/29 07:38:33;;;;;;;1.85;0.50;;;16.40;72.60;;;;;;4927429;28;20043;-81
2023/03/29 07:41:09;;;;;;;0.82;0.40;;;16.60;73.10;;;;;;4948388;28;20040;-80
2023/03/29 07:43:50;;;;;;;0.77;0.47;;;16.70;72.60;;;;;;4959264;28;20040;-80
2023/03/29 07:46:24;;;;;;;0.70;0.40;;;16.80;72.50;;;;;;4957531;28;20063;-80
2023/03/29 07:48:52;;;;;;;1.02;0.40;;;16.90;72.50;;;;;;4942904;28;20132;-78
2023/03/29 07:51:18;;;;;;;1.05;0.40;;;17.00;72.40;;;;;;4959094;28;20755;-82
2023/03/29 07:53:48;;;;;;;1.17;0.57;;;17.10;72.30;;;;;;4945232;28;20032;-82
2023/03/29 07:56:33;;;;;;;0.80;0.80;;;17.20;72.20;;;;;;4954534;28;20399;-79
2023/03/29 07:59:17;;;;;;;0.80;0.50;;;17.10;71.70;;;;;;4926850;29;20463;-79
2023/03/29 08:01:51;;;;;;;1.30;0.60;;;17.10;71.50;;;;;;4941308;28;20263;-81
2023/03/29 08:04:33;;;;;;;0.57;0.40;;;17.10;71.50;;;;;;4944137;28;20090;-79
2023/03/29 08:07:18;;;;;;;1.08;0.52;;;17.00;71.40;;;;;;4924874;29;20728;-81
2023/03/29 08:10:18;;;;;;;0.80;0.50;;;16.90;71.30;;;;;;4930247;29;20114;-81
2023/03/29 08:13:06;;;;;;;0.50;0.50;;;16.80;71.30;;;;;;4928098;29;20094;-82
2023/03/29 08:15:49;;;;;;;1.33;0.80;;;16.70;71.30;;;;;;4958257;28;20343;-84
2023/03/29 08:18:29;;;;;;;1.30;0.60;;;16.60;71.30;;;;;;4941441;28;20094;-82
2023/03/29 08:20:55;;;;;;;0.50;0.38;;;16.50;71.20;;;;;;4941834;28;20051;-82
2023/03/29 08:23:23;;;;;;;1.65;0.68;;;16.40;71.10;;;;;;4945449;28;20035;-82
2023/03/29 08:26:08;;;;;;;0.77;0.77;;;16.30;71.00;;;;;;4954889;28;20031;-82
2023/03/29 08:28:36;;;;;;;0.75;0.63;;;16.30;71.70;;;;;;4934037;29;20042;-83
2023/03/29 08:31:11;;;;;;;1.27;0.45;;;16.20;71.00;;;;;;4928547;29;20066;-79
2023/03/29 08:33:42;;;;;;;2.00;0.43;;;16.20;71.20;;;;;;4924525;29;20032;-79
2023/03/29 08:36:28;;;;;;;0.47;0.40;;;16.10;71.10;;;;;;4922427;29;20035;-82
2023/03/29 08:38:57;;;;;;;0.55;0.40;;;16.10;71.20;;;;;;4956777;28;20528;-79
2023/03/29 08:42:05;;;;;;;0.70;0.40;;;16.00;71.10;;;;;;4953730;28;20063;-80
2023/03/29 08:45:08;;;;;;;0.40;0.40;;;16.00;71.20;;;;;;4921630;29;20042;-78
2023/03/29 08:48:03;;;;;;;1.52;0.47;;;15.90;71.00;;;;;;4954295;28;20059;-80
2023/03/29 08:50:38;;;;;;;0.95;0.40;;;15.90;71.10;;;;;;4937894;28;20558;-77
2023/03/29 08:53:34;;;;;;;0.20;0.20;;;15.90;71.10;;;;;;4924058;29;20820;-79
2023/03/29 08:56:29;;;;;;;0.57;0.50;;;15.90;71.10;;;;;;4921856;29;20099;-80
2023/03/29 08:59:23;;;;;;;1.13;0.38;;;15.90;71.10;;;;;;4934422;28;20032;-78
2023/03/29 09:01:52;;;;;;;0.40;0.40;;;16.00;71.20;;;;;;4939423;28;20032;-76
2023/03/29 09:04:25;;;;;;;;;;;16.00;71.20;;;;;;4952249;28;20126;-79
2023/03/29 09:07:10;;;;;;;0.50;0.30;;;15.90;71.00;;;;;;4928598;29;19915;-79
2023/03/29 09:09:42;;;;;;;0.93;0.35;;;16.00;71.10;;;;;;4937733;28;20039;-78
2023/03/29 09:12:34;;;;;;;0.60;0.40;;;16.00;71.10;;;;;;4929484;28;20083;-79
2023/03/29 09:15:13;;;;;;;0.87;0.53;;;16.00;71.20;;;;;;4933853;28;20110;-78
2023/03/29 09:17:58;;;;;;;0.40;0.40;;;16.00;71.10;;;;;;4940096;28;20147;-81
2023/03/29 09:20:48;;;;;;;1.08;0.45;;;16.10;71.30;;;;;;4923964;28;20040;-79
2023/03/29 09:23:43;;;;;;;1.73;0.50;;;16.10;71.30;;;;;;4954495;28;20043;-81
2023/03/29 09:26:46;;;;;;;0.88;0.45;;;16.10;71.20;;;;;;4928717;29;20436;-81
2023/03/29 09:29:55;;;;;;;;;;;16.30;71.40;;;;;;4957400;28;20570;-80
2023/03/29 09:32:41;;;;;;;0.95;0.50;;;16.30;71.20;;;;;;4940908;28;19923;-81
2023/03/29 09:35:25;;;;;;;0.60;0.50;;;16.40;71.10;;;;;;4949898;28;20028;-81
2023/03/29 09:37:54;;;;;;;0.98;0.50;;;16.60;71.30;;;;;;4940660;28;20231;-81
2023/03/29 09:40:23;;;;;;;1.38;0.85;;;16.60;71.00;;;;;;4925861;29;20549;-80
2023/03/29 09:43:10;;;;;;;1.15;0.57;;;16.70;71.10;;;;;;4942633;28;20032;-82
2023/03/29 09:45:38;;;;;;;1.33;0.80;;;16.90;71.20;;;;;;4933330;28;20443;-81
2023/03/29 09:48:14;;;;;;;0.85;0.40;;;17.00;71.20;;;;;;4961920;28;20034;-83
2023/03/29 09:50:47;;;;;;;1.90;0.77;;;17.10;71.10;;;;;;4953141;28;20453;-79
2023/03/29 09:53:15;;;;;;;0.82;0.82;;;17.30;71.30;;;;;;4963748;28;20035;-83
2023/03/29 09:55:49;;;;;;;0.63;0.50;;;17.30;71.60;;;;;;4960400;28;20030;-75
2023/03/29 09:58:33;;;;;;;;;;;17.50;71.10;;;;;;4960724;28;20088;-82
2023/03/29 10:01:03;;;;;;;0.40;0.40;;;17.60;71.00;;;;;;4960283;28;20234;-82
2023/03/29 10:03:30;;;;;;;1.40;0.65;;;17.70;71.00;;;;;;4964168;28;20346;-83
2023/03/29 10:06:13;;;;;;;0.90;0.70;;;17.80;71.00;;;;;;4960715;28;20479;-81
2023/03/29 10:08:53;;;;;;;0.95;0.50;;;17.90;71.00;;;;;;4978174;28;20512;-83
2023/03/29 10:11:37;;;;;;;1.42;0.60;;;17.90;70.90;;;;;;4976613;28;20043;-83
2023/03/29 10:14:16;;;;;;;2.00;0.77;;;17.90;70.80;;;;;;4963121;28;20446;-83
2023/03/29 10:16:44;;;;;;;1.08;0.82;;;17.90;70.80;;;;;;4961952;28;20149;-81
2023/03/29 10:19:21;;;;;;;2.15;0.90;;;17.90;70.80;;;;;;4977676;28;20050;-83
2023/03/29 10:21:54;;;;;;;1.77;0.63;;;17.90;70.80;;;;;;4962667;28;20033;-82
2023/03/29 10:24:25;;;;;;;0.93;0.65;;;17.90;70.80;;;;;;4960916;28;20141;-81
2023/03/29 10:27:11;;;;;;;1.42;0.80;;;17.90;70.90;;;;;;4963463;28;20429;-82
2023/03/29 10:29:42;;;;;;;2.03;0.57;;;17.90;71.00;;;;;;4964006;28;20551;-85
2023/03/29 10:32:15;;;;;;;1.20;1.08;;;17.90;71.00;;;;;;4977490;28;20412;-82
2023/03/29 10:34:46;;;;;;;0.50;0.50;;;17.90;71.00;;;;;;4963929;28;20501;-85
2023/03/29 10:37:15;;;;;;;1.92;1.15;;;17.90;71.00;;;;;;4961733;28;20114;-78
2023/03/29 10:39:42;;;;;;;0.80;0.60;;;17.90;70.90;;;;;;4969263;28;20026;-81
2023/03/29 10:42:16;;;;;;;3.10;1.20;;;18.00;71.00;;;;;;4974211;28;20066;-82
2023/03/29 10:44:51;;;;;;;2.38;1.17;;;18.20;71.10;;;;;;4977701;28;20035;-87
2023/03/29 10:47:19;;;;;;;2.08;0.98;;;18.40;71.00;;;;;;4960738;28;20054;-83
2023/03/29 10:50:00;;;;;;;2.63;1.30;;;18.60;70.90;;;;;;4965539;28;20391;-83
2023/03/29 10:52:28;;;;;;;1.00;0.90;;;18.80;70.80;;;;;;4962545;28;20510;-80
2023/03/29 10:54:55;;;;;;;1.67;0.90;;;18.90;70.50;;;;;;4979996;28;20034;-87
2023/03/29 10:57:39;;;;;;;1.17;0.70;;;19.00;70.30;;;;;;4963971;28;20556;-80
2023/03/29 11:00:40;;;;;;;1.98;0.70;;;19.10;70.20;;;;;;4961437;28;20057;-82
2023/03/29 11:03:20;;;;;;;2.10;0.80;;;19.10;69.90;;;;;;4966321;28;20027;-85
2023/03/29 11:06:09;;;;;;;1.23;0.60;;;19.20;70.00;;;;;;4965997;28;20145;-86
2023/03/29 11:08:51;;;;;;;1.23;1.13;;;19.30;69.90;;;;;;4958371;28;20042;-85
2023/03/29 11:11:29;;;;;;;1.42;0.80;;;19.30;69.80;;;;;;4967960;28;20189;-83
2023/03/29 11:14:38;;;;;;;2.55;1.27;;;19.40;69.80;;;;;;4962751;28;20074;-84
2023/03/29 11:17:22;;;;;;;3.33;0.70;;;19.40;69.60;;;;;;4948987;28;20067;-82
2023/03/29 11:19:54;;;;;;;2.15;0.80;;;19.50;69.60;;;;;;4967698;28;20097;-83
2023/03/29 11:22:32;;;;;;;1.10;0.70;;;19.50;69.50;;;;;;4977036;28;20022;-83
2023/03/29 11:25:39;;;;;;;5.35;1.77;;;19.50;69.90;;;;;;4965557;28;20170;-83
2023/03/29 11:28:44;;;;;;;1.02;0.63;;;19.60;69.20;;;;;;4982007;28;20533;-82
2023/03/29 11:31:31;;;;;;;1.15;0.55;;;19.70;69.20;;;;;;4968894;28;20043;-82
2023/03/29 11:34:28;;;;;;;0.82;0.57;;;19.60;69.00;;;;;;4968371;28;20034;-82
2023/03/29 11:37:19;;;;;;;1.42;0.50;;;19.60;68.90;;;;;;4967830;28;20043;-82
2023/03/29 11:40:04;;;;;;;0.93;0.60;;;19.60;68.90;;;;;;4965123;28;20031;-85
2023/03/29 11:42:37;;;;;;;1.85;0.60;;;19.60;68.90;;;;;;4981216;28;20027;-86
2023/03/29 11:45:05;;;;;;;2.30;0.77;;;19.50;68.70;;;;;;4980163;28;20093;-85
2023/03/29 11:47:35;;;;;;;0.95;0.70;;;19.40;68.50;;;;;;4964643;28;20374;-80
2023/03/29 11:50:21;;;;;;;2.47;0.77;;;19.40;68.60;;;;;;4966433;28;20038;-80
2023/03/29 11:53:16;;;;;;;2.13;0.57;;;19.30;68.50;;;;;;4960896;28;20031;-77
2023/03/29 11:55:43;;;;;;;1.13;0.77;;;19.30;69.20;;;;;;4966549;28;20030;-80
2023/03/29 11:58:21;;;;;;;1.58;1.08;;;19.20;68.60;;;;;;4978870;28;20335;-79
2023/03/29 12:00:56;;;;;;;3.35;1.02;;;19.10;68.40;;;;;;4962469;28;20045;-77
2023/03/29 12:04:00;;;;;;;3.10;0.68;;;19.10;68.50;;;;;;4961349;28;20102;-80
2023/03/29 12:06:38;;;;;;;;;;;19.00;68.30;;;;;;4964955;28;20105;-80
2023/03/29 12:09:22;;;;;;;5.53;0.95;;;19.00;68.50;;;;;;4968173;28;19981;-79
2023/03/29 12:11:53;;;;;;;1.08;0.77;;;19.00;68.60;;;;;;4961831;28;20042;-78
2023/03/29 12:14:42;;;;;;;2.33;0.60;;;19.00;68.60;;;;;;4966505;28;20027;-80
2023/03/29 12:17:13;;;;;;;2.72;0.90;;;19.00;68.50;;;;;;4962303;28;20031;-79
2023/03/29 12:19:57;;;;;;;0.88;0.65;;;19.10;68.40;;;;;;4963555;28;20430;-80
2023/03/29 12:22:24;;;;;;;1.50;0.70;;;19.20;68.30;;;;;;4961369;28;20039;-81
2023/03/29 12:24:53;;;;;;;2.00;0.60;;;19.20;68.30;;;;;;4978784;28;20031;-81
2023/03/29 12:27:43;;;;;;;1.50;0.60;;;19.30;68.30;;;;;;4978881;28;20054;-81
2023/03/29 12:30:22;;;;;;;2.38;1.00;;;19.30;68.20;;;;;;4986537;28;20133;-78
2023/03/29 12:33:03;;;;;;;1.98;1.05;;;19.40;68.20;;;;;;4986897;28;20035;-80
2023/03/29 12:36:07;;;;;;;1.15;0.80;;;19.40;68.10;;;;;;4997020;28;20081;-80
2023/03/29 12:39:01;;;;;;;1.45;1.00;;;19.40;68.00;;;;;;4962823;28;20037;-79
2023/03/29 12:41:52;;;;;;;1.65;0.60;;;19.40;67.90;;;;;;4994292;28;20246;-79
2023/03/29 12:45:03;;;;;;;1.38;0.60;;;19.50;68.10;;;;;;4975330;28;20042;-80
2023/03/29 12:47:42;;;;;;;3.30;1.48;;;19.50;68.00;;;;;;4972625;28;20251;-81
2023/03/29 12:50:27;;;;;;;1.15;0.90;;;19.60;68.00;;;;;;4964095;28;20586;-81
2023/03/29 12:53:22;;;;;;;1.90;1.15;;;19.60;67.80;;;;;;4962996;28;20049;-82
2023/03/29 12:56:12;;;;;;;2.10;0.88;;;19.70;67.70;;;;;;4962425;28;20815;-80
2023/03/29 12:58:38;;;;;;;3.08;1.75;;;19.80;67.60;;;;;;4946350;28;20047;-81
2023/03/29 13:01:22;;;;;;;3.78;1.42;;;19.80;67.60;;;;;;4964307;28;20041;-81
2023/03/29 13:03:56;;;;;;;1.48;0.80;;;19.90;67.60;;;;;;4963469;28;20034;-80
2023/03/29 13:06:29;;;;;;;1.85;0.95;;;19.90;67.50;;;;;;4962371;28;20035;-80
2023/03/29 13:09:21;;;;;;;3.53;1.58;;;19.90;67.40;;;;;;4963682;28;20591;-80
2023/03/29 13:12:10;;;;;;;2.60;0.93;;;20.00;67.50;;;;;;4962532;28;20569;-78
2023/03/29 13:14:41;;;;;;;1.55;0.90;;;20.20;67.50;;;;;;4961967;28;20720;-80
2023/03/29 13:17:17;;;;;;;1.88;0.70;;;20.40;67.40;;;;;;4964303;28;20105;-82
2023/03/29 13:19:52;;;;;;;1.55;1.00;;;20.60;67.10;;;;;;4962858;28;20624;-80
2023/03/29 13:22:30;;;;;;;2.67;1.23;;;20.80;67.00;;;;;;4962314;28;20705;-82
2023/03/29 13:25:18;;;;;;;2.95;1.45;;;20.90;66.70;;;;;;4964956;28;20033;-81
2023/03/29 13:28:06;;;;;;;3.58;1.05;;;20.90;66.60;;;;;;4963873;28;20046;-82
2023/03/29 13:30:44;;;;;;;1.58;0.80;;;20.80;66.40;;;;;;4964872;28;20138;-82
2023/03/29 13:33:32;;;;;;;2.63;0.90;;;20.80;66.50;;;;;;4961660;28;20034;-82
2023/03/29 13:36:26;;;;;;;2.50;1.00;;;20.80;66.40;;;;;;4978451;28;20479;-84
2023/03/29 13:38:54;;;;;;;3.38;1.02;;;20.70;66.40;;;;;;4966115;28;20447;-81